sensor_id;sensor_type;location;lat;lon;timestamp;temperature;humidity
37300;DHT22;23184;51.902;12.836;2023-06-10T00:01:45;17.90;99.90
37300;DHT22;23184;51.902;12.836;2023-06-10T00:04:14;17.80;99.90
37300;DHT22;23184;51.902;12.836;2023-06-10T00:06:40;17.80;99.90
37300;DHT22;23184;51.902;12.836;2023-06-10T00:09:06;17.70;99.90
37300;DHT22;23184;51.902;12.836;2023-06-10T00:11:36;17.60;99.90
37300;DHT22;23184;51.902;12.836;2023-06-10T00:14:02;17.60;99.90
37300;DHT22;23184;51.902;12.836;2023-06-10T00:16:28;17.50;99.90
37300;DHT22;23184;51.902;12.836;2023-06-10T00:18:54;17.50;99.90
37300;DHT22;23184;51.902;12.836;2023-06-10T00:21:27;17.40;99.90
37300;DHT22;23184;51.902;12.836;2023-06-10T00:23:53;17.40;99.90
37300;DHT22;23184;51.902;12.836;2023-06-10T00:26:21;17.30;99.90
37300;DHT22;23184;51.902;12.836;2023-06-10T00:28:47;17.30;99.90
37300;DHT22;23184;51.902;12.836;2023-06-10T00:31:12;17.20;99.90
37300;DHT22;23184;51.902;12.836;2023-06-10T00:33:38;17.10;99.90
37300;DHT22;23184;51.902;12.836;2023-06-10T00:36:03;17.10;99.90
37300;DHT22;23184;51.902;12.836;2023-06-10T00:38:29;17.00;99.90
37300;DHT22;23184;51.902;12.836;2023-06-10T00:40:54;17.00;99.90
37300;DHT22;23184;51.902;12.836;2023-06-10T00:43:20;17.00;99.90
37300;DHT22;23184;51.902;12.836;2023-06-10T00:45:45;17.00;99.90
37300;DHT22;23184;51.902;12.836;2023-06-10T00:48:11;16.90;99.90
37300;DHT22;23184;51.902;12.836;2023-06-10T00:50:36;16.90;99.90
37300;DHT22;23184;51.902;12.836;2023-06-10T00:53:04;16.90;99.90
37300;DHT22;23184;51.902;12.836;2023-06-10T00:55:32;16.80;99.90
37300;DHT22;23184;51.902;12.836;2023-06-10T00:57:58;16.80;99.90
37300;DHT22;23184;51.902;12.836;2023-06-10T01:00:23;16.70;99.90
37300;DHT22;23184;51.902;12.836;2023-06-10T01:02:49;16.70;99.90
37300;DHT22;23184;51.902;12.836;2023-06-10T01:05:17;16.60;99.90
37300;DHT22;23184;51.902;12.836;2023-06-10T01:10:20;16.50;99.90
37300;DHT22;23184;51.902;12.836;2023-06-10T01:12:52;16.50;99.90
37300;DHT22;23184;51.902;12.836;2023-06-10T01:15:21;16.40;99.90
37300;DHT22;23184;51.902;12.836;2023-06-10T01:20:27;16.40;99.90
37300;DHT22;23184;51.902;12.836;2023-06-10T01:22:54;16.40;99.90
37300;DHT22;23184;51.902;12.836;2023-06-10T01:25:21;16.30;99.90
37300;DHT22;23184;51.902;12.836;2023-06-10T01:28:04;16.30;99.90
37300;DHT22;23184;51.902;12.836;2023-06-10T01:30:37;16.20;99.90
37300;DHT22;23184;51.902;12.836;2023-06-10T01:33:07;16.20;99.90
37300;DHT22;23184;51.902;12.836;2023-06-10T01:35:36;16.10;99.90
37300;DHT22;23184;51.902;12.836;2023-06-10T01:38:02;16.10;99.90
37300;DHT22;23184;51.902;12.836;2023-06-10T01:40:29;16.10;99.90
37300;DHT22;23184;51.902;12.836;2023-06-10T01:42:56;16.10;99.90
37300;DHT22;23184;51.902;12.836;2023-06-10T01:45:21;16.00;99.90
37300;DHT22;23184;51.902;12.836;2023-06-10T01:47:47;16.00;99.90
37300;DHT22;23184;51.902;12.836;2023-06-10T01:50:12;15.90;99.90
37300;DHT22;23184;51.902;12.836;2023-06-10T01:52:39;15.90;99.90
37300;DHT22;23184;51.902;12.836;2023-06-10T01:55:04;15.80;99.90
37300;DHT22;23184;51.902;12.836;2023-06-10T01:57:30;15.80;99.90
37300;DHT22;23184;51.902;12.836;2023-06-10T01:59:55;15.70;99.90
37300;DHT22;23184;51.902;12.836;2023-06-10T02:02:21;15.60;99.90
37300;DHT22;23184;51.902;12.836;2023-06-10T02:04:47;15.60;99.90
37300;DHT22;23184;51.902;12.836;2023-06-10T02:07:13;15.60;99.90
37300;DHT22;23184;51.902;12.836;2023-06-10T02:09:38;15.50;99.90
37300;DHT22;23184;51.902;12.836;2023-06-10T02:12:04;15.60;99.90
37300;DHT22;23184;51.902;12.836;2023-06-10T02:14:32;15.60;99.90
37300;DHT22;23184;51.902;12.836;2023-06-10T02:16:58;15.60;99.90
37300;DHT22;23184;51.902;12.836;2023-06-10T02:19:23;15.60;99.90
37300;DHT22;23184;51.902;12.836;2023-06-10T02:21:50;15.60;99.90
37300;DHT22;23184;51.902;12.836;2023-06-10T02:24:16;15.60;99.90
37300;DHT22;23184;51.902;12.836;2023-06-10T02:26:41;15.60;99.90
37300;DHT22;23184;51.902;12.836;2023-06-10T02:29:07;15.60;99.90
37300;DHT22;23184;51.902;12.836;2023-06-10T02:31:33;15.50;99.90
37300;DHT22;23184;51.902;12.836;2023-06-10T02:34:01;15.50;99.90
37300;DHT22;23184;51.902;12.836;2023-06-10T02:36:26;15.50;99.90
37300;DHT22;23184;51.902;12.836;2023-06-10T02:38:53;15.50;99.90
37300;DHT22;23184;51.902;12.836;2023-06-10T02:41:18;15.50;99.90
37300;DHT22;23184;51.902;12.836;2023-06-10T02:43:44;15.40;99.90
37300;DHT22;23184;51.902;12.836;2023-06-10T02:46:09;15.40;99.90
37300;DHT22;23184;51.902;12.836;2023-06-10T02:48:45;15.40;99.90
37300;DHT22;23184;51.902;12.836;2023-06-10T02:51:12;15.30;99.90
37300;DHT22;23184;51.902;12.836;2023-06-10T02:53:37;15.30;99.90
37300;DHT22;23184;51.902;12.836;2023-06-10T02:56:03;15.20;99.90
37300;DHT22;23184;51.902;12.836;2023-06-10T02:58:28;15.20;99.90
37300;DHT22;23184;51.902;12.836;2023-06-10T03:00:54;15.20;99.90
37300;DHT22;23184;51.902;12.836;2023-06-10T03:03:20;15.10;99.90
37300;DHT22;23184;51.902;12.836;2023-06-10T03:05:47;15.10;99.90
37300;DHT22;23184;51.902;12.836;2023-06-10T03:08:13;15.10;99.90
37300;DHT22;23184;51.902;12.836;2023-06-10T03:10:39;15.10;99.90
37300;DHT22;23184;51.902;12.836;2023-06-10T03:13:04;15.10;99.90
37300;DHT22;23184;51.902;12.836;2023-06-10T03:15:30;15.10;99.90
37300;DHT22;23184;51.902;12.836;2023-06-10T03:17:58;15.10;99.90
37300;DHT22;23184;51.902;12.836;2023-06-10T03:20:25;15.10;99.90
37300;DHT22;23184;51.902;12.836;2023-06-10T03:22:51;15.10;99.90
37300;DHT22;23184;51.902;12.836;2023-06-10T03:25:16;15.10;99.90
37300;DHT22;23184;51.902;12.836;2023-06-10T03:27:42;15.10;99.90
37300;DHT22;23184;51.902;12.836;2023-06-10T03:30:08;15.10;99.90
37300;DHT22;23184;51.902;12.836;2023-06-10T03:32:34;15.10;99.90
37300;DHT22;23184;51.902;12.836;2023-06-10T03:35:00;15.10;99.90
37300;DHT22;23184;51.902;12.836;2023-06-10T03:37:26;15.10;99.90
37300;DHT22;23184;51.902;12.836;2023-06-10T03:39:51;15.10;99.90
37300;DHT22;23184;51.902;12.836;2023-06-10T03:42:17;15.10;99.90
37300;DHT22;23184;51.902;12.836;2023-06-10T03:44:42;15.10;99.90
37300;DHT22;23184;51.902;12.836;2023-06-10T03:47:08;15.10;99.90
37300;DHT22;23184;51.902;12.836;2023-06-10T03:49:33;15.10;99.90
37300;DHT22;23184;51.902;12.836;2023-06-10T03:51:59;15.10;99.90
37300;DHT22;23184;51.902;12.836;2023-06-10T03:54:25;15.20;99.90
37300;DHT22;23184;51.902;12.836;2023-06-10T03:56:50;15.20;99.90
37300;DHT22;23184;51.902;12.836;2023-06-10T03:59:16;15.30;99.90
37300;DHT22;23184;51.902;12.836;2023-06-10T04:01:42;15.30;99.90
37300;DHT22;23184;51.902;12.836;2023-06-10T04:04:08;15.30;99.90
37300;DHT22;23184;51.902;12.836;2023-06-10T04:06:34;15.30;99.90
37300;DHT22;23184;51.902;12.836;2023-06-10T04:09:00;15.40;99.90
37300;DHT22;23184;51.902;12.836;2023-06-10T04:11:25;15.40;99.90
37300;DHT22;23184;51.902;12.836;2023-06-10T04:13:51;15.50;99.90
37300;DHT22;23184;51.902;12.836;2023-06-10T04:16:16;15.50;99.90
37300;DHT22;23184;51.902;12.836;2023-06-10T04:18:42;15.60;99.90
37300;DHT22;23184;51.902;12.836;2023-06-10T04:21:07;15.70;99.90
37300;DHT22;23184;51.902;12.836;2023-06-10T04:23:35;15.80;99.90
37300;DHT22;23184;51.902;12.836;2023-06-10T04:26:00;15.80;99.90
37300;DHT22;23184;51.902;12.836;2023-06-10T04:28:26;15.80;99.90
37300;DHT22;23184;51.902;12.836;2023-06-10T04:30:52;15.80;99.90
37300;DHT22;23184;51.902;12.836;2023-06-10T04:33:17;15.90;99.90
37300;DHT22;23184;51.902;12.836;2023-06-10T04:35:43;15.90;99.90
37300;DHT22;23184;51.902;12.836;2023-06-10T04:38:08;15.90;99.90
37300;DHT22;23184;51.902;12.836;2023-06-10T04:40:34;16.10;99.90
37300;DHT22;23184;51.902;12.836;2023-06-10T04:42:59;16.20;99.90
37300;DHT22;23184;51.902;12.836;2023-06-10T04:45:25;16.30;99.90
37300;DHT22;23184;51.902;12.836;2023-06-10T04:47:50;16.40;99.90
37300;DHT22;23184;51.902;12.836;2023-06-10T04:50:16;16.50;99.90
37300;DHT22;23184;51.902;12.836;2023-06-10T04:52:41;16.60;99.90
37300;DHT22;23184;51.902;12.836;2023-06-10T04:55:07;16.70;99.90
37300;DHT22;23184;51.902;12.836;2023-06-10T04:57:33;16.80;99.90
37300;DHT22;23184;51.902;12.836;2023-06-10T04:59:58;16.80;99.90
37300;DHT22;23184;51.902;12.836;2023-06-10T05:02:24;16.90;99.90
37300;DHT22;23184;51.902;12.836;2023-06-10T05:04:49;16.90;99.90
37300;DHT22;23184;51.902;12.836;2023-06-10T05:07:15;16.90;99.90
37300;DHT22;23184;51.902;12.836;2023-06-10T05:09:41;16.90;99.90
37300;DHT22;23184;51.902;12.836;2023-06-10T05:12:07;17.00;99.90
37300;DHT22;23184;51.902;12.836;2023-06-10T05:14:32;17.00;99.90
37300;DHT22;23184;51.902;12.836;2023-06-10T05:16:58;17.10;99.90
37300;DHT22;23184;51.902;12.836;2023-06-10T05:19:23;17.20;99.90
37300;DHT22;23184;51.902;12.836;2023-06-10T05:21:49;17.20;99.90
37300;DHT22;23184;51.902;12.836;2023-06-10T05:24:14;17.30;99.90
37300;DHT22;23184;51.902;12.836;2023-06-10T05:26:40;17.30;99.90
37300;DHT22;23184;51.902;12.836;2023-06-10T05:29:07;17.40;99.90
37300;DHT22;23184;51.902;12.836;2023-06-10T05:31:34;17.50;99.90
37300;DHT22;23184;51.902;12.836;2023-06-10T05:34:00;17.70;99.90
37300;DHT22;23184;51.902;12.836;2023-06-10T05:36:25;17.80;99.90
37300;DHT22;23184;51.902;12.836;2023-06-10T05:38:51;17.90;99.90
37300;DHT22;23184;51.902;12.836;2023-06-10T05:41:17;18.00;99.90
37300;DHT22;23184;51.902;12.836;2023-06-10T05:43:42;18.00;99.90
37300;DHT22;23184;51.902;12.836;2023-06-10T05:46:08;18.00;99.90
37300;DHT22;23184;51.902;12.836;2023-06-10T05:48:34;18.00;99.90
37300;DHT22;23184;51.902;12.836;2023-06-10T05:50:59;18.00;99.90
37300;DHT22;23184;51.902;12.836;2023-06-10T05:53:25;18.00;99.90
37300;DHT22;23184;51.902;12.836;2023-06-10T05:55:50;18.10;99.90
37300;DHT22;23184;51.902;12.836;2023-06-10T05:58:17;18.20;99.90
37300;DHT22;23184;51.902;12.836;2023-06-10T06:00:43;18.30;99.90
37300;DHT22;23184;51.902;12.836;2023-06-10T06:03:09;18.30;99.90
37300;DHT22;23184;51.902;12.836;2023-06-10T06:05:35;18.30;99.90
37300;DHT22;23184;51.902;12.836;2023-06-10T06:08:03;18.40;99.90
37300;DHT22;23184;51.902;12.836;2023-06-10T06:10:28;18.50;99.90
37300;DHT22;23184;51.902;12.836;2023-06-10T06:12:54;18.50;99.90
37300;DHT22;23184;51.902;12.836;2023-06-10T06:15:19;18.50;99.90
37300;DHT22;23184;51.902;12.836;2023-06-10T06:17:45;18.70;99.90
37300;DHT22;23184;51.902;12.836;2023-06-10T06:20:10;18.70;99.90
37300;DHT22;23184;51.902;12.836;2023-06-10T06:22:36;18.90;99.90
37300;DHT22;23184;51.902;12.836;2023-06-10T06:25:02;18.90;99.90
37300;DHT22;23184;51.902;12.836;2023-06-10T06:27:28;19.10;99.90
37300;DHT22;23184;51.902;12.836;2023-06-10T06:29:53;19.20;99.90
37300;DHT22;23184;51.902;12.836;2023-06-10T06:32:19;19.30;99.90
37300;DHT22;23184;51.902;12.836;2023-06-10T06:34:44;19.40;99.90
37300;DHT22;23184;51.902;12.836;2023-06-10T06:37:10;19.50;99.90
37300;DHT22;23184;51.902;12.836;2023-06-10T06:39:35;19.70;99.90
37300;DHT22;23184;51.902;12.836;2023-06-10T06:42:01;19.80;99.90
37300;DHT22;23184;51.902;12.836;2023-06-10T06:44:26;19.90;99.90
37300;DHT22;23184;51.902;12.836;2023-06-10T06:46:52;20.10;99.90
37300;DHT22;23184;51.902;12.836;2023-06-10T06:49:17;20.20;99.90
37300;DHT22;23184;51.902;12.836;2023-06-10T06:51:43;20.40;99.90
37300;DHT22;23184;51.902;12.836;2023-06-10T06:54:08;20.50;99.90
37300;DHT22;23184;51.902;12.836;2023-06-10T06:56:34;20.60;99.90
37300;DHT22;23184;51.902;12.836;2023-06-10T06:58:59;20.70;99.90
37300;DHT22;23184;51.902;12.836;2023-06-10T07:01:25;21.00;99.90
37300;DHT22;23184;51.902;12.836;2023-06-10T07:03:50;21.20;99.90
37300;DHT22;23184;51.902;12.836;2023-06-10T07:06:16;21.50;99.90
37300;DHT22;23184;51.902;12.836;2023-06-10T07:08:41;21.60;99.90
37300;DHT22;23184;51.902;12.836;2023-06-10T07:11:07;21.80;99.90
37300;DHT22;23184;51.902;12.836;2023-06-10T07:13:32;22.10;99.90
37300;DHT22;23184;51.902;12.836;2023-06-10T07:15:58;22.40;99.90
37300;DHT22;23184;51.902;12.836;2023-06-10T07:18:24;22.70;99.90
37300;DHT22;23184;51.902;12.836;2023-06-10T07:20:49;22.90;99.90
37300;DHT22;23184;51.902;12.836;2023-06-10T07:23:15;23.10;99.90
37300;DHT22;23184;51.902;12.836;2023-06-10T07:25:41;23.40;99.90
37300;DHT22;23184;51.902;12.836;2023-06-10T07:28:07;23.70;99.90
37300;DHT22;23184;51.902;12.836;2023-06-10T07:30:32;24.00;99.90
37300;DHT22;23184;51.902;12.836;2023-06-10T07:32:58;24.40;99.90
37300;DHT22;23184;51.902;12.836;2023-06-10T07:35:23;24.70;99.90
37300;DHT22;23184;51.902;12.836;2023-06-10T07:37:49;24.70;99.90
37300;DHT22;23184;51.902;12.836;2023-06-10T07:40:15;24.80;99.90
37300;DHT22;23184;51.902;12.836;2023-06-10T07:42:40;25.20;99.90
37300;DHT22;23184;51.902;12.836;2023-06-10T07:45:07;25.50;99.90
37300;DHT22;23184;51.902;12.836;2023-06-10T07:47:33;25.70;99.90
37300;DHT22;23184;51.902;12.836;2023-06-10T07:49:59;25.80;99.90
37300;DHT22;23184;51.902;12.836;2023-06-10T07:52:25;25.90;99.90
37300;DHT22;23184;51.902;12.836;2023-06-10T07:54:51;26.10;99.90
37300;DHT22;23184;51.902;12.836;2023-06-10T07:57:17;26.30;99.90
37300;DHT22;23184;51.902;12.836;2023-06-10T07:59:42;26.60;99.90
37300;DHT22;23184;51.902;12.836;2023-06-10T08:02:09;26.90;99.90
37300;DHT22;23184;51.902;12.836;2023-06-10T08:04:35;27.20;99.90
37300;DHT22;23184;51.902;12.836;2023-06-10T08:07:01;27.20;99.90
37300;DHT22;23184;51.902;12.836;2023-06-10T08:09:27;27.50;99.90
37300;DHT22;23184;51.902;12.836;2023-06-10T08:11:53;27.70;99.90
37300;DHT22;23184;51.902;12.836;2023-06-10T08:14:18;27.90;99.90
37300;DHT22;23184;51.902;12.836;2023-06-10T08:16:44;28.00;99.90
37300;DHT22;23184;51.902;12.836;2023-06-10T08:19:10;28.10;99.90
37300;DHT22;23184;51.902;12.836;2023-06-10T08:21:35;28.50;99.90
37300;DHT22;23184;51.902;12.836;2023-06-10T08:24:06;28.80;99.70
37300;DHT22;23184;51.902;12.836;2023-06-10T08:26:31;29.00;98.30
37300;DHT22;23184;51.902;12.836;2023-06-10T08:28:57;29.20;97.60
37300;DHT22;23184;51.902;12.836;2023-06-10T08:31:22;29.40;95.60
37300;DHT22;23184;51.902;12.836;2023-06-10T08:33:48;29.10;96.30
37300;DHT22;23184;51.902;12.836;2023-06-10T08:36:13;29.30;95.10
37300;DHT22;23184;51.902;12.836;2023-06-10T08:38:39;29.50;94.30
37300;DHT22;23184;51.902;12.836;2023-06-10T08:41:05;29.90;93.60
37300;DHT22;23184;51.902;12.836;2023-06-10T08:43:44;30.00;91.40
37300;DHT22;23184;51.902;12.836;2023-06-10T08:46:11;29.90;90.90
37300;DHT22;23184;51.902;12.836;2023-06-10T08:48:42;30.00;89.50
37300;DHT22;23184;51.902;12.836;2023-06-10T08:51:10;30.20;87.50
37300;DHT22;23184;51.902;12.836;2023-06-10T08:53:38;30.50;85.90
37300;DHT22;23184;51.902;12.836;2023-06-10T08:56:08;30.80;84.00
37300;DHT22;23184;51.902;12.836;2023-06-10T08:58:35;30.80;84.20
37300;DHT22;23184;51.902;12.836;2023-06-10T09:01:07;31.10;83.00
37300;DHT22;23184;51.902;12.836;2023-06-10T09:03:34;31.40;81.00
37300;DHT22;23184;51.902;12.836;2023-06-10T09:06:00;31.60;80.00
37300;DHT22;23184;51.902;12.836;2023-06-10T09:08:27;32.00;77.90
37300;DHT22;23184;51.902;12.836;2023-06-10T09:10:53;32.10;74.10
37300;DHT22;23184;51.902;12.836;2023-06-10T09:13:19;32.60;74.50
37300;DHT22;23184;51.902;12.836;2023-06-10T09:15:44;33.10;72.90
37300;DHT22;23184;51.902;12.836;2023-06-10T09:18:11;33.20;70.30
37300;DHT22;23184;51.902;12.836;2023-06-10T09:20:38;33.10;69.40
37300;DHT22;23184;51.902;12.836;2023-06-10T09:23:05;33.40;68.00
37300;DHT22;23184;51.902;12.836;2023-06-10T09:25:38;33.50;66.20
37300;DHT22;23184;51.902;12.836;2023-06-10T09:28:05;34.00;66.80
37300;DHT22;23184;51.902;12.836;2023-06-10T09:30:32;34.10;64.70
37300;DHT22;23184;51.902;12.836;2023-06-10T09:33:01;34.20;62.90
37300;DHT22;23184;51.902;12.836;2023-06-10T09:35:29;34.30;62.80
37300;DHT22;23184;51.902;12.836;2023-06-10T09:37:57;34.60;63.00
37300;DHT22;23184;51.902;12.836;2023-06-10T09:40:22;34.60;61.00
37300;DHT22;23184;51.902;12.836;2023-06-10T09:42:53;34.40;60.30
37300;DHT22;23184;51.902;12.836;2023-06-10T09:45:20;34.30;60.50
37300;DHT22;23184;51.902;12.836;2023-06-10T09:47:47;34.60;60.70
37300;DHT22;23184;51.902;12.836;2023-06-10T09:50:12;35.00;60.10
37300;DHT22;23184;51.902;12.836;2023-06-10T09:52:38;34.20;59.00
37300;DHT22;23184;51.902;12.836;2023-06-10T09:55:04;34.90;59.30
37300;DHT22;23184;51.902;12.836;2023-06-10T09:57:33;35.30;58.00
37300;DHT22;23184;51.902;12.836;2023-06-10T09:59:59;35.00;57.40
37300;DHT22;23184;51.902;12.836;2023-06-10T10:02:29;33.80;59.60
37300;DHT22;23184;51.902;12.836;2023-06-10T10:05:02;34.10;59.70
37300;DHT22;23184;51.902;12.836;2023-06-10T10:07:28;34.50;59.40
37300;DHT22;23184;51.902;12.836;2023-06-10T10:09:54;35.00;57.60
37300;DHT22;23184;51.902;12.836;2023-06-10T10:12:20;35.50;57.30
37300;DHT22;23184;51.902;12.836;2023-06-10T10:14:47;36.10;56.00
37300;DHT22;23184;51.902;12.836;2023-06-10T10:17:14;36.00;55.20
37300;DHT22;23184;51.902;12.836;2023-06-10T10:19:46;36.20;55.90
37300;DHT22;23184;51.902;12.836;2023-06-10T10:22:20;36.20;56.00
37300;DHT22;23184;51.902;12.836;2023-06-10T10:24:50;36.40;54.10
37300;DHT22;23184;51.902;12.836;2023-06-10T10:27:28;36.70;53.70
37300;DHT22;23184;51.902;12.836;2023-06-10T10:29:54;36.40;53.50
37300;DHT22;23184;51.902;12.836;2023-06-10T10:32:32;36.50;52.50
37300;DHT22;23184;51.902;12.836;2023-06-10T10:35:17;35.70;53.50
37300;DHT22;23184;51.902;12.836;2023-06-10T10:37:46;35.30;54.30
37300;DHT22;23184;51.902;12.836;2023-06-10T10:40:12;34.40;54.60
37300;DHT22;23184;51.902;12.836;2023-06-10T10:42:39;33.60;57.60
37300;DHT22;23184;51.902;12.836;2023-06-10T10:45:05;33.90;57.90
37300;DHT22;23184;51.902;12.836;2023-06-10T10:47:33;34.00;57.30
37300;DHT22;23184;51.902;12.836;2023-06-10T10:50:00;34.20;56.50
37300;DHT22;23184;51.902;12.836;2023-06-10T10:52:28;34.90;55.50
37300;DHT22;23184;51.902;12.836;2023-06-10T10:55:13;35.70;54.20
37300;DHT22;23184;51.902;12.836;2023-06-10T10:57:38;36.40;53.00
37300;DHT22;23184;51.902;12.836;2023-06-10T11:00:05;36.10;52.80
37300;DHT22;23184;51.902;12.836;2023-06-10T11:02:46;36.10;49.80
37300;DHT22;23184;51.902;12.836;2023-06-10T11:05:14;36.60;49.10
37300;DHT22;23184;51.902;12.836;2023-06-10T11:07:40;36.50;48.70
37300;DHT22;23184;51.902;12.836;2023-06-10T11:10:10;37.10;47.80
37300;DHT22;23184;51.902;12.836;2023-06-10T11:15:18;36.50;48.60
37300;DHT22;23184;51.902;12.836;2023-06-10T11:18:07;36.30;47.90
37300;DHT22;23184;51.902;12.836;2023-06-10T11:26:16;35.70;50.40
37300;DHT22;23184;51.902;12.836;2023-06-10T11:29:04;34.60;54.10
37300;DHT22;23184;51.902;12.836;2023-06-10T11:31:39;33.50;56.60
37300;DHT22;23184;51.902;12.836;2023-06-10T11:34:05;32.50;59.20
37300;DHT22;23184;51.902;12.836;2023-06-10T11:36:33;32.30;60.60
37300;DHT22;23184;51.902;12.836;2023-06-10T11:39:05;31.90;62.00
37300;DHT22;23184;51.902;12.836;2023-06-10T11:41:32;31.50;63.20
37300;DHT22;23184;51.902;12.836;2023-06-10T11:46:35;30.80;64.70
37300;DHT22;23184;51.902;12.836;2023-06-10T11:49:01;30.50;66.00
37300;DHT22;23184;51.902;12.836;2023-06-10T11:51:33;30.40;67.00
37300;DHT22;23184;51.902;12.836;2023-06-10T11:53:59;30.20;68.40
37300;DHT22;23184;51.902;12.836;2023-06-10T11:56:26;30.00;66.80
37300;DHT22;23184;51.902;12.836;2023-06-10T11:59:03;29.90;68.10
37300;DHT22;23184;51.902;12.836;2023-06-10T12:01:37;29.60;70.30
37300;DHT22;23184;51.902;12.836;2023-06-10T12:04:05;28.70;65.20
37300;DHT22;23184;51.902;12.836;2023-06-10T12:06:44;27.90;59.70
37300;DHT22;23184;51.902;12.836;2023-06-10T12:09:28;27.20;62.40
37300;DHT22;23184;51.902;12.836;2023-06-10T12:14:50;26.60;66.50
37300;DHT22;23184;51.902;12.836;2023-06-10T12:17:16;26.40;68.10
37300;DHT22;23184;51.902;12.836;2023-06-10T12:19:42;26.10;70.20
37300;DHT22;23184;51.902;12.836;2023-06-10T12:22:07;25.90;73.00
37300;DHT22;23184;51.902;12.836;2023-06-10T12:24:33;25.70;74.80
37300;DHT22;23184;51.902;12.836;2023-06-10T12:27:11;25.50;72.20
37300;DHT22;23184;51.902;12.836;2023-06-10T12:29:37;25.40;73.00
37300;DHT22;23184;51.902;12.836;2023-06-10T12:32:04;25.10;75.40
37300;DHT22;23184;51.902;12.836;2023-06-10T12:34:38;24.80;99.90
37300;DHT22;23184;51.902;12.836;2023-06-10T12:37:07;24.30;99.90
37300;DHT22;23184;51.902;12.836;2023-06-10T12:39:39;23.90;99.90
37300;DHT22;23184;51.902;12.836;2023-06-10T12:42:05;23.50;99.90
37300;DHT22;23184;51.902;12.836;2023-06-10T12:44:35;23.20;99.90
37300;DHT22;23184;51.902;12.836;2023-06-10T12:47:10;22.90;99.90
37300;DHT22;23184;51.902;12.836;2023-06-10T12:49:38;22.80;99.90
37300;DHT22;23184;51.902;12.836;2023-06-10T12:52:05;22.60;99.90
37300;DHT22;23184;51.902;12.836;2023-06-10T12:54:31;22.50;99.90
37300;DHT22;23184;51.902;12.836;2023-06-10T12:56:57;22.40;99.90
37300;DHT22;23184;51.902;12.836;2023-06-10T12:59:23;22.30;99.90
37300;DHT22;23184;51.902;12.836;2023-06-10T13:01:53;22.20;99.90
37300;DHT22;23184;51.902;12.836;2023-06-10T13:04:19;22.10;99.90
37300;DHT22;23184;51.902;12.836;2023-06-10T13:06:45;22.10;99.90
37300;DHT22;23184;51.902;12.836;2023-06-10T13:09:13;22.10;99.90
37300;DHT22;23184;51.902;12.836;2023-06-10T13:11:38;22.20;99.90
37300;DHT22;23184;51.902;12.836;2023-06-10T13:14:04;22.20;99.90
37300;DHT22;23184;51.902;12.836;2023-06-10T13:16:32;22.20;99.90
37300;DHT22;23184;51.902;12.836;2023-06-10T13:18:57;22.30;99.90
37300;DHT22;23184;51.902;12.836;2023-06-10T13:21:23;22.30;99.90
37300;DHT22;23184;51.902;12.836;2023-06-10T13:23:48;22.30;99.90
37300;DHT22;23184;51.902;12.836;2023-06-10T13:26:14;22.30;99.90
37300;DHT22;23184;51.902;12.836;2023-06-10T13:28:42;22.30;99.90
37300;DHT22;23184;51.902;12.836;2023-06-10T13:31:07;22.40;99.90
37300;DHT22;23184;51.902;12.836;2023-06-10T13:33:33;22.40;99.90
37300;DHT22;23184;51.902;12.836;2023-06-10T13:35:59;22.30;99.90
37300;DHT22;23184;51.902;12.836;2023-06-10T13:38:24;22.20;99.90
37300;DHT22;23184;51.902;12.836;2023-06-10T13:40:49;22.20;99.90
37300;DHT22;23184;51.902;12.836;2023-06-10T13:43:16;22.30;99.90
37300;DHT22;23184;51.902;12.836;2023-06-10T13:45:42;22.30;99.90
37300;DHT22;23184;51.902;12.836;2023-06-10T13:48:07;22.50;99.90
37300;DHT22;23184;51.902;12.836;2023-06-10T13:50:33;22.60;99.90
37300;DHT22;23184;51.902;12.836;2023-06-10T13:52:59;22.70;99.90
37300;DHT22;23184;51.902;12.836;2023-06-10T13:55:24;22.80;99.90
37300;DHT22;23184;51.902;12.836;2023-06-10T13:57:50;22.80;99.90
37300;DHT22;23184;51.902;12.836;2023-06-10T14:00:16;22.90;99.90
37300;DHT22;23184;51.902;12.836;2023-06-10T14:02:42;23.00;99.90
37300;DHT22;23184;51.902;12.836;2023-06-10T14:05:07;23.10;99.90
37300;DHT22;23184;51.902;12.836;2023-06-10T14:07:34;23.30;99.90
37300;DHT22;23184;51.902;12.836;2023-06-10T14:09:59;23.30;99.90
37300;DHT22;23184;51.902;12.836;2023-06-10T14:12:25;23.50;99.90
37300;DHT22;23184;51.902;12.836;2023-06-10T14:14:50;23.70;99.90
37300;DHT22;23184;51.902;12.836;2023-06-10T14:17:16;23.80;99.90
37300;DHT22;23184;51.902;12.836;2023-06-10T14:19:41;24.00;99.90
37300;DHT22;23184;51.902;12.836;2023-06-10T14:22:07;24.10;99.90
37300;DHT22;23184;51.902;12.836;2023-06-10T14:24:33;24.40;99.90
37300;DHT22;23184;51.902;12.836;2023-06-10T14:27:00;24.70;99.90
37300;DHT22;23184;51.902;12.836;2023-06-10T14:29:25;25.00;99.90
37300;DHT22;23184;51.902;12.836;2023-06-10T14:31:54;25.10;99.90
37300;DHT22;23184;51.902;12.836;2023-06-10T14:34:20;25.20;99.90
37300;DHT22;23184;51.902;12.836;2023-06-10T14:36:45;25.30;99.90
37300;DHT22;23184;51.902;12.836;2023-06-10T14:39:11;25.40;99.90
37300;DHT22;23184;51.902;12.836;2023-06-10T14:41:37;25.60;99.90
37300;DHT22;23184;51.902;12.836;2023-06-10T14:44:02;25.80;99.90
37300;DHT22;23184;51.902;12.836;2023-06-10T14:46:28;26.00;99.90
37300;DHT22;23184;51.902;12.836;2023-06-10T14:48:53;26.20;99.90
37300;DHT22;23184;51.902;12.836;2023-06-10T14:51:19;26.20;99.90
37300;DHT22;23184;51.902;12.836;2023-06-10T14:53:46;26.30;99.90
37300;DHT22;23184;51.902;12.836;2023-06-10T14:56:12;26.50;99.90
37300;DHT22;23184;51.902;12.836;2023-06-10T14:58:37;26.80;99.90
37300;DHT22;23184;51.902;12.836;2023-06-10T15:01:03;27.10;99.90
37300;DHT22;23184;51.902;12.836;2023-06-10T15:03:29;27.50;99.90
37300;DHT22;23184;51.902;12.836;2023-06-10T15:08:20;28.60;99.90
37300;DHT22;23184;51.902;12.836;2023-06-10T15:10:45;29.00;99.90
37300;DHT22;23184;51.902;12.836;2023-06-10T15:13:13;29.40;99.90
37300;DHT22;23184;51.902;12.836;2023-06-10T15:15:39;29.70;99.90
37300;DHT22;23184;51.902;12.836;2023-06-10T15:18:04;29.90;99.90
37300;DHT22;23184;51.902;12.836;2023-06-10T15:20:30;30.00;99.90
37300;DHT22;23184;51.902;12.836;2023-06-10T15:22:55;30.00;99.90
37300;DHT22;23184;51.902;12.836;2023-06-10T15:25:21;29.90;99.70
37300;DHT22;23184;51.902;12.836;2023-06-10T15:27:46;29.70;99.90
37300;DHT22;23184;51.902;12.836;2023-06-10T15:30:12;29.40;99.90
37300;DHT22;23184;51.902;12.836;2023-06-10T15:32:37;29.20;99.90
37300;DHT22;23184;51.902;12.836;2023-06-10T15:35:03;28.90;99.90